Time;durP1;ratioP1;P1;durP2;ratioP2;P2;SDS_P1;SDS_P2;PMS_P1;PMS_P2;Temp;Humidity;BMP_temperature;BMP_pressure;BME280_temperature;BME280_humidity;BME280_pressure;Samples;Min_cycle;Max_cycle;Signal;HPM_P1;HPM_P2
2022/04/11 00:01:25;;;;;;;;;;;;;;;;;;5054887;28;19913;-43
2022/04/11 00:03:50;;;;;;;;;;;;;;;;;;5054835;28;19995;-42
2022/04/11 00:06:15;;;;;;;;;;;;;;;;;;5036903;28;19967;-42
2022/04/11 00:08:40;;;;;;;;;;;;;;;;;;5054805;28;19913;-43
2022/04/11 00:11:05;;;;;;;;;;;;;;;;;;5054930;28;20292;-43
2022/04/11 00:13:31;;;;;;;;;;;;;;;;;;5083559;22;19924;-43
2022/04/11 00:15:56;;;;;;;;;;;;;;;;;;5076705;28;19912;-43
2022/04/11 00:18:21;;;;;;;;;;;;;;;;;;5094624;28;19916;-42
2022/04/11 00:20:47;;;;;;;;;;;;;;;;;;5094917;28;19958;-42
2022/04/11 00:23:12;;;;;;;;;;;;;;;;;;5094795;28;19908;-42
2022/04/11 00:25:37;;;;;;;;;;;;;;;;;;5094772;28;20290;-43
2022/04/11 00:28:02;;;;;;;;;;;;;;;;;;5094815;28;19915;-43
2022/04/11 00:30:28;;;;;;;;;;;;;;;;;;5094955;28;19931;-41
2022/04/11 00:32:53;;;;;;;;;;;;;;;;;;5094582;28;19915;-42
2022/04/11 00:35:18;;;;;;;;;;;;;;;;;;5112699;28;19914;-43
2022/04/11 00:37:43;;;;;;;;;;;;;;;;;;5114970;28;20262;-42
2022/04/11 00:40:08;;;;;;;;;;;;;;;;;;5115242;28;19923;-44
2022/04/11 00:42:33;;;;;;;;;;;;;;;;;;5116878;28;19912;-42
2022/04/11 00:44:59;;;;;;;;;;;;;;;;;;5100349;28;20263;-43
2022/04/11 00:47:25;;;;;;;;;;;;;;;;;;5118816;28;20294;-42
2022/04/11 00:49:50;;;;;;;;;;;;;;;;;;5118620;28;19908;-42
2022/04/11 00:52:15;;;;;;;;;;;;;;;;;;5118655;28;19942;-42
2022/04/11 00:54:43;;;;;;;;;;;;;;;;;;5118516;28;19934;-42
2022/04/11 00:57:08;;;;;;;;;;;;;;;;;;5118379;28;19912;-42
2022/04/11 00:59:33;;;;;;;;;;;;;;;;;;5115165;28;19915;-41
2022/04/11 01:01:58;;;;;;;;;;;;;;;;;;5098158;28;19973;-41
2022/04/11 01:04:24;;;;;;;;;;;;;;;;;;5097910;28;20354;-41
2022/04/11 01:06:49;;;;;;;;;;;;;;;;;;5097982;28;19914;-44
2022/04/11 01:09:14;;;;;;;;;;;;;;;;;;5079955;28;20354;-42
2022/04/11 01:11:39;;;;;;;;;;;;;;;;;;5098331;28;20324;-42
2022/04/11 01:14:04;;;;;;;;;;;;;;;;;;5079589;28;19926;-43
2022/04/11 01:16:29;;;;;;;;;;;;;;;;;;5097973;28;20052;-42
2022/04/11 01:18:54;;;;;;;;;;;;;;;;;;5097764;28;19924;-42
2022/04/11 01:21:19;;;;;;;;;;;;;;;;;;5097565;28;20260;-42
2022/04/11 01:23:44;;;;;;;;;;;;;;;;;;5097429;28;19931;-43
2022/04/11 01:26:09;;;;;;;;;;;;;;;;;;5097685;28;19908;-42
2022/04/11 01:28:35;;;;;;;;;;;;;;;;;;5097620;28;19912;-42
2022/04/11 01:31:00;;;;;;;;;;;;;;;;;;5097672;28;19908;-43
2022/04/11 01:33:25;;;;;;;;;;;;;;;;;;5097453;28;19950;-42
2022/04/11 01:35:50;;;;;;;;;;;;;;;;;;5097726;28;19939;-42
2022/04/11 01:38:15;;;;;;;;;;;;;;;;;;5097323;28;19941;-42
2022/04/11 01:40:40;;;;;;;;;;;;;;;;;;5097408;28;20049;-42
2022/04/11 01:43:05;;;;;;;;;;;;;;;;;;5097264;28;20010;-43
2022/04/11 01:45:30;;;;;;;;;;;;;;;;;;5097149;28;20003;-42
2022/04/11 01:47:56;;;;;;;;;;;;;;;;;;5097225;28;19908;-42
2022/04/11 01:50:21;;;;;;;;;;;;;;;;;;5097245;28;20053;-43
2022/04/11 01:52:46;;;;;;;;;;;;;;;;;;5096877;28;19931;-42
2022/04/11 01:55:11;;;;;;;;;;;;;;;;;;5096505;28;19962;-42
2022/04/11 01:57:36;;;;;;;;;;;;;;;;;;5097213;28;20346;-42
2022/04/11 02:00:01;;;;;;;;;;;;;;;;;;5097041;28;19962;-42
2022/04/11 02:02:26;;;;;;;;;;;;;;;;;;5096880;28;19908;-43
2022/04/11 02:04:52;;;;;;;;;;;;;;;;;;5096910;28;20314;-42
2022/04/11 02:07:17;;;;;;;;;;;;;;;;;;5096949;28;19908;-42
2022/04/11 02:09:42;;;;;;;;;;;;;;;;;;5096670;28;19908;-43
2022/04/11 02:12:07;;;;;;;;;;;;;;;;;;5096725;28;20362;-42
2022/04/11 02:14:32;;;;;;;;;;;;;;;;;;5096588;28;19927;-41
2022/04/11 02:16:57;;;;;;;;;;;;;;;;;;5096626;28;19932;-42
2022/04/11 02:19:22;;;;;;;;;;;;;;;;;;5096635;28;20274;-42
2022/04/11 02:21:47;;;;;;;;;;;;;;;;;;5096841;28;19916;-41
2022/04/11 02:24:13;;;;;;;;;;;;;;;;;;5098422;28;19904;-42
2022/04/11 02:26:38;;;;;;;;;;;;;;;;;;5116445;28;19918;-41
2022/04/11 02:29:03;;;;;;;;;;;;;;;;;;5117067;28;20343;-43
2022/04/11 02:31:28;;;;;;;;;;;;;;;;;;5116540;28;20377;-43
2022/04/11 02:33:53;;;;;;;;;;;;;;;;;;5116570;28;20002;-43
2022/04/11 02:36:18;;;;;;;;;;;;;;;;;;5116675;28;19911;-43
2022/04/11 02:38:43;;;;;;;;;;;;;;;;;;5116621;28;19912;-43
2022/04/11 02:41:08;;;;;;;;;;;;;;;;;;5116520;28;20017;-43
2022/04/11 02:43:34;;;;;;;;;;;;;;;;;;5116443;28;19919;-42
2022/04/11 02:45:59;;;;;;;;;;;;;;;;;;5116462;28;20377;-43
2022/04/11 02:48:24;;;;;;;;;;;;;;;;;;5116693;28;19953;-43
2022/04/11 02:50:51;;;;;;;;;;;;;;;;;;5116539;28;19908;-43
2022/04/11 02:53:16;;;;;;;;;;;;;;;;;;5116014;28;19990;-42
2022/04/11 02:55:41;;;;;;;;;;;;;;;;;;5116239;28;19939;-43
2022/04/11 02:58:06;;;;;;;;;;;;;;;;;;5097862;28;19912;-42
2022/04/11 03:00:31;;;;;;;;;;;;;;;;;;5116358;28;20354;-43
2022/04/11 03:02:56;;;;;;;;;;;;;;;;;;5116480;28;19977;-42
2022/04/11 03:05:21;;;;;;;;;;;;;;;;;;5115270;28;19908;-42
2022/04/11 03:07:47;;;;;;;;;;;;;;;;;;5115928;28;19957;-43
2022/04/11 03:10:12;;;;;;;;;;;;;;;;;;5116118;28;20278;-43
2022/04/11 03:12:37;;;;;;;;;;;;;;;;;;5115650;28;20006;-44
2022/04/11 03:15:02;;;;;;;;;;;;;;;;;;5115988;28;19908;-43
2022/04/11 03:17:27;;;;;;;;;;;;;;;;;;5115733;28;19919;-42
2022/04/11 03:19:52;;;;;;;;;;;;;;;;;;5115767;28;19919;-43
2022/04/11 03:22:18;;;;;;;;;;;;;;;;;;5115921;28;19907;-43
2022/04/11 03:24:43;;;;;;;;;;;;;;;;;;5115886;28;19914;-42
2022/04/11 03:27:08;;;;;;;;;;;;;;;;;;5115859;28;19919;-42
2022/04/11 03:29:33;;;;;;;;;;;;;;;;;;5115739;28;19908;-42
2022/04/11 03:31:58;;;;;;;;;;;;;;;;;;5115983;28;19930;-43
2022/04/11 03:34:23;;;;;;;;;;;;;;;;;;5115944;28;19914;-43
2022/04/11 03:36:48;;;;;;;;;;;;;;;;;;5115690;28;19907;-42
2022/04/11 03:39:13;;;;;;;;;;;;;;;;;;5115986;28;19999;-42
2022/04/11 03:41:39;;;;;;;;;;;;;;;;;;5115602;28;19944;-42
2022/04/11 03:44:04;;;;;;;;;;;;;;;;;;5115864;28;19908;-42
2022/04/11 03:46:29;;;;;;;;;;;;;;;;;;5115552;28;20000;-42
2022/04/11 03:48:54;;;;;;;;;;;;;;;;;;5115404;28;19994;-42
2022/04/11 03:51:20;;;;;;;;;;;;;;;;;;5115531;28;20401;-42
2022/04/11 03:53:45;;;;;;;;;;;;;;;;;;5115829;28;19908;-42
2022/04/11 03:56:12;;;;;;;;;;;;;;;;;;5115382;28;20011;-42
2022/04/11 03:58:37;;;;;;;;;;;;;;;;;;5115265;28;19918;-42
2022/04/11 04:01:02;;;;;;;;;;;;;;;;;;5115430;28;19912;-42
2022/04/11 04:03:27;;;;;;;;;;;;;;;;;;5115817;28;19907;-42
2022/04/11 04:05:52;;;;;;;;;;;;;;;;;;5115412;28;19997;-42
2022/04/11 04:08:18;;;;;;;;;;;;;;;;;;5115401;28;19933;-42
2022/04/11 04:10:43;;;;;;;;;;;;;;;;;;5115295;28;19990;-42
2022/04/11 04:13:08;;;;;;;;;;;;;;;;;;5096900;28;19920;-43
2022/04/11 04:15:33;;;;;;;;;;;;;;;;;;5115509;28;19915;-43
2022/04/11 04:17:58;;;;;;;;;;;;;;;;;;5117974;28;19926;-43
2022/04/11 04:20:26;;;;;;;;;;;;;;;;;;5119311;28;19919;-42
2022/04/11 04:22:51;;;;;;;;;;;;;;;;;;5119545;28;19915;-42
2022/04/11 04:25:16;;;;;;;;;;;;;;;;;;5119277;28;19911;-43
2022/04/11 04:27:42;;;;;;;;;;;;;;;;;;5119438;28;19915;-42
2022/04/11 04:30:07;;;;;;;;;;;;;;;;;;5119554;28;19954;-43
2022/04/11 04:32:32;;;;;;;;;;;;;;;;;;5119142;28;19908;-42
2022/04/11 04:34:57;;;;;;;;;;;;;;;;;;5119231;28;19950;-42
2022/04/11 04:37:22;;;;;;;;;;;;;;;;;;5118918;28;19911;-42
2022/04/11 04:39:47;;;;;;;;;;;;;;;;;;5119225;28;19912;-42
2022/04/11 04:42:12;;;;;;;;;;;;;;;;;;5118868;28;19908;-42
2022/04/11 04:44:37;;;;;;;;;;;;;;;;;;5119115;28;19979;-43
2022/04/11 04:47:03;;;;;;;;;;;;;;;;;;5118890;28;19908;-42
2022/04/11 04:49:28;;;;;;;;;;;;;;;;;;5118842;28;19907;-42
2022/04/11 04:51:53;;;;;;;;;;;;;;;;;;5118818;28;19908;-43
2022/04/11 04:54:18;;;;;;;;;;;;;;;;;;5118643;28;20363;-42
2022/04/11 04:56:43;;;;;;;;;;;;;;;;;;5118621;28;20251;-42
2022/04/11 04:59:08;;;;;;;;;;;;;;;;;;5118848;28;19908;-42
2022/04/11 05:01:33;;;;;;;;;;;;;;;;;;5118954;28;19918;-43
2022/04/11 05:03:59;;;;;;;;;;;;;;;;;;5118484;28;19992;-42
2022/04/11 05:06:24;;;;;;;;;;;;;;;;;;5118665;28;19908;-42
2022/04/11 05:08:49;;;;;;;;;;;;;;;;;;5118634;28;19960;-42
2022/04/11 05:11:14;;;;;;;;;;;;;;;;;;5118230;28;20010;-42
2022/04/11 05:13:40;;;;;;;;;;;;;;;;;;5118264;28;19920;-43
2022/04/11 05:16:05;;;;;;;;;;;;;;;;;;5118394;28;19912;-42
2022/04/11 05:18:30;;;;;;;;;;;;;;;;;;5118161;28;20355;-42
2022/04/11 05:20:55;;;;;;;;;;;;;;;;;;5111678;28;19916;-43
2022/04/11 05:23:20;;;;;;;;;;;;;;;;;;5116616;28;19964;-42
2022/04/11 05:25:45;;;;;;;;;;;;;;;;;;5109963;28;20355;-44
2022/04/11 05:28:10;;;;;;;;;;;;;;;;;;5099622;28;20352;-45
2022/04/11 05:30:36;;;;;;;;;;;;;;;;;;5115215;28;19947;-45
2022/04/11 05:33:01;;;;;;;;;;;;;;;;;;5114885;28;19912;-45
2022/04/11 05:35:26;;;;;;;;;;;;;;;;;;5112416;28;20362;-45
2022/04/11 05:37:51;;;;;;;;;;;;;;;;;;5100486;28;19916;-45
2022/04/11 05:40:16;;;;;;;;;;;;;;;;;;5095517;28;19960;-45
2022/04/11 05:42:41;;;;;;;;;;;;;;;;;;5100190;28;20000;-45
2022/04/11 05:45:06;;;;;;;;;;;;;;;;;;5092609;28;20383;-45
2022/04/11 05:47:31;;;;;;;;;;;;;;;;;;5097827;28;19962;-45
2022/04/11 05:49:57;;;;;;;;;;;;;;;;;;5098106;28;19930;-45
2022/04/11 05:52:22;;;;;;;;;;;;;;;;;;5097884;28;19929;-47
2022/04/11 05:54:47;;;;;;;;;;;;;;;;;;5095343;28;19970;-45
2022/04/11 05:57:12;;;;;;;;;;;;;;;;;;5092210;28;19931;-44
2022/04/11 05:59:37;;;;;;;;;;;;;;;;;;5097225;28;19920;-45
2022/04/11 06:02:02;;;;;;;;;;;;;;;;;;5086955;28;19920;-46
2022/04/11 06:04:27;;;;;;;;;;;;;;;;;;5081458;28;19920;-45
2022/04/11 06:06:52;;;;;;;;;;;;;;;;;;5080485;28;19912;-45
2022/04/11 06:09:18;;;;;;;;;;;;;;;;;;5074721;28;19919;-45
2022/04/11 06:11:43;;;;;;;;;;;;;;;;;;5044769;28;21796;-45
2022/04/11 06:14:08;;;;;;;;;;;;;;;;;;5026774;28;19963;-45
2022/04/11 06:16:33;;;;;;;;;;;;;;;;;;5024256;28;19938;-45
2022/04/11 06:18:58;;;;;;;;;;;;;;;;;;4968818;28;19994;-45
2022/04/11 06:21:23;;;;;;;;;;;;;;;;;;4877217;27;19927;-45
2022/04/11 06:23:48;;;;;;;;;;;;;;;;;;4800067;28;19919;-46
2022/04/11 06:26:13;;;;;;;;;;;;;;;;;;4732968;28;20017;-45
2022/04/11 06:28:41;;;;;;;;;;;;;;;;;;4701637;27;20083;-45
2022/04/11 06:31:06;;;;;;;;;;;;;;;;;;4741782;28;22563;-46
2022/04/11 06:33:31;;;;;;;;;;;;;;;;;;4865919;28;20605;-46
2022/04/11 06:35:56;;;;;;;;;;;;;;;;;;4916627;27;20559;-46
2022/04/11 06:38:21;;;;;;;;;;;;;;;;;;4912360;27;20041;-46
2022/04/11 06:40:46;;;;;;;;;;;;;;;;;;4981334;27;21886;-48
2022/04/11 06:43:12;;;;;;;;;;;;;;;;;;4928991;28;20690;-45
2022/04/11 06:45:37;;;;;;;;;;;;;;;;;;4934193;28;20058;-45
2022/04/11 06:48:02;;;;;;;;;;;;;;;;;;4987856;28;19951;-45
2022/04/11 06:50:27;;;;;;;;;;;;;;;;;;4955664;28;19943;-45
2022/04/11 06:52:52;;;;;;;;;;;;;;;;;;4964763;27;19958;-44
2022/04/11 06:55:17;;;;;;;;;;;;;;;;;;4969433;27;22273;-45
2022/04/11 06:57:42;;;;;;;;;;;;;;;;;;4973769;27;19924;-45
2022/04/11 07:00:07;;;;;;;;;;;;;;;;;;4972191;28;20613;-45
2022/04/11 07:02:32;;;;;;;;;;;;;;;;;;4991641;27;19942;-45
2022/04/11 07:04:58;;;;;;;;;;;;;;;;;;4980596;27;19942;-46
2022/04/11 07:07:23;;;;;;;;;;;;;;;;;;4960064;28;22198;-47
2022/04/11 07:09:48;;;;;;;;;;;;;;;;;;4922570;27;19931;-47
2022/04/11 07:12:13;;;;;;;;;;;;;;;;;;4925404;28;22144;-48
2022/04/11 07:14:38;;;;;;;;;;;;;;;;;;4814703;27;21407;-47
2022/04/11 07:17:03;;;;;;;;;;;;;;;;;;4830426;28;21214;-46
2022/04/11 07:19:28;;;;;;;;;;;;;;;;;;4747900;27;22446;-47
2022/04/11 07:21:53;;;;;;;;;;;;;;;;;;4613563;28;21188;-46
2022/04/11 07:24:18;;;;;;;;;;;;;;;;;;4609318;28;20031;-47
2022/04/11 07:26:44;;;;;;;;;;;;;;;;;;4697920;28;20499;-47
2022/04/11 07:29:09;;;;;;;;;;;;;;;;;;4752343;28;19920;-47
2022/04/11 07:31:34;;;;;;;;;;;;;;;;;;4806186;28;19927;-46
2022/04/11 07:34:01;;;;;;;;;;;;;;;;;;4837624;28;20738;-45
2022/04/11 07:36:28;;;;;;;;;;;;;;;;;;4878391;28;20800;-45
2022/04/11 07:38:53;;;;;;;;;;;;;;;;;;4878075;28;22431;-47
2022/04/11 07:41:18;;;;;;;;;;;;;;;;;;4904275;28;20577;-45
2022/04/11 07:43:43;;;;;;;;;;;;;;;;;;4854398;28;21033;-46
2022/04/11 07:46:09;;;;;;;;;;;;;;;;;;4865411;28;19920;-46
2022/04/11 07:48:34;;;;;;;;;;;;;;;;;;4815780;28;22060;-46
2022/04/11 07:50:59;;;;;;;;;;;;;;;;;;4866060;28;22091;-48
2022/04/11 07:53:24;;;;;;;;;;;;;;;;;;4841069;28;51871;-48
2022/04/11 07:55:49;;;;;;;;;;;;;;;;;;4855524;28;23255;-48
2022/04/11 07:58:15;;;;;;;;;;;;;;;;;;4850620;28;20804;-46
2022/04/11 08:00:40;;;;;;;;;;;;;;;;;;4875286;28;20822;-46
2022/04/11 08:03:05;;;;;;;;;;;;;;;;;;4862966;28;19920;-47
2022/04/11 08:05:30;;;;;;;;;;;;;;;;;;4865837;28;22931;-48
2022/04/11 08:07:56;;;;;;;;;;;;;;;;;;4825151;28;20537;-47
2022/04/11 08:10:23;;;;;;;;;;;;;;;;;;4787628;28;22652;-47
2022/04/11 08:12:49;;;;;;;;;;;;;;;;;;4703364;28;21512;-46
2022/04/11 08:15:14;;;;;;;;;;;;;;;;;;4735489;28;21384;-45
2022/04/11 08:17:39;;;;;;;;;;;;;;;;;;4814640;28;20158;-47
2022/04/11 08:20:04;;;;;;;;;;;;;;;;;;4826485;28;20166;-46
2022/04/11 08:22:29;;;;;;;;;;;;;;;;;;4804780;28;19920;-48
2022/04/11 08:24:54;;;;;;;;;;;;;;;;;;4771370;28;19920;-45
2022/04/11 08:27:19;;;;;;;;;;;;;;;;;;4701110;28;20701;-44
2022/04/11 08:29:44;;;;;;;;;;;;;;;;;;4549871;28;26650;-47
2022/04/11 08:32:10;;;;;;;;;;;;;;;;;;4670542;28;25106;-45
2022/04/11 08:34:35;;;;;;;;;;;;;;;;;;4690925;28;20715;-47
2022/04/11 08:37:00;;;;;;;;;;;;;;;;;;4807907;28;25125;-46
2022/04/11 08:39:26;;;;;;;;;;;;;;;;;;4870202;28;23051;-46
2022/04/11 08:41:51;;;;;;;;;;;;;;;;;;4859590;28;34506;-45
2022/04/11 08:44:17;;;;;;;;;;;;;;;;;;4877520;28;21981;-46
2022/04/11 08:46:42;;;;;;;;;;;;;;;;;;4839828;28;20325;-47
2022/04/11 08:49:07;;;;;;;;;;;;;;;;;;4824278;28;20309;-47
2022/04/11 08:51:32;;;;;;;;;;;;;;;;;;4859163;28;19920;-46
2022/04/11 08:53:57;;;;;;;;;;;;;;;;;;4833538;28;19924;-46
2022/04/11 08:56:22;;;;;;;;;;;;;;;;;;4808217;28;20328;-46
2022/04/11 08:58:47;;;;;;;;;;;;;;;;;;4869504;28;20175;-46
2022/04/11 09:01:12;;;;;;;;;;;;;;;;;;4859169;28;19953;-46
2022/04/11 09:03:38;;;;;;;;;;;;;;;;;;4846808;27;24249;-46
2022/04/11 09:06:03;;;;;;;;;;;;;;;;;;4849819;28;20417;-45
2022/04/11 09:08:28;;;;;;;;;;;;;;;;;;4867240;28;20503;-46
2022/04/11 09:10:53;;;;;;;;;;;;;;;;;;4834999;27;20097;-47
2022/04/11 09:13:18;;;;;;;;;;;;;;;;;;4839847;27;21704;-43
2022/04/11 09:15:45;;;;;;;;;;;;;;;;;;4822078;28;19924;-46
2022/04/11 09:18:10;;;;;;;;;;;;;;;;;;4832257;27;19923;-46
2022/04/11 09:20:35;;;;;;;;;;;;;;;;;;4789219;28;20603;-45
2022/04/11 09:23:00;;;;;;;;;;;;;;;;;;4559975;28;22744;-46
2022/04/11 09:25:25;;;;;;;;;;;;;;;;;;4603690;27;19982;-45
2022/04/11 09:27:50;;;;;;;;;;;;;;;;;;4696553;28;19931;-45
2022/04/11 09:30:15;;;;;;;;;;;;;;;;;;4763923;27;21485;-45
2022/04/11 09:32:41;;;;;;;;;;;;;;;;;;4804856;28;19924;-46
2022/04/11 09:35:06;;;;;;;;;;;;;;;;;;4845049;27;19927;-46
2022/04/11 09:37:31;;;;;;;;;;;;;;;;;;4823457;27;19930;-45
2022/04/11 09:39:59;;;;;;;;;;;;;;;;;;4795143;28;21735;-46
2022/04/11 09:42:24;;;;;;;;;;;;;;;;;;4795358;27;21975;-44
2022/04/11 09:44:51;;;;;;;;;;;;;;;;;;4835877;27;30857;-46
2022/04/11 09:47:17;;;;;;;;;;;;;;;;;;4823193;28;20010;-46
2022/04/11 09:49:42;;;;;;;;;;;;;;;;;;4828207;28;20474;-44
2022/04/11 09:52:12;;;;;;;;;;;;;;;;;;4837028;27;24448;-45
2022/04/11 09:54:37;;;;;;;;;;;;;;;;;;4829400;28;20535;-45
2022/04/11 09:57:02;;;;;;;;;;;;;;;;;;4820976;28;21855;-44
2022/04/11 09:59:28;;;;;;;;;;;;;;;;;;4835779;28;21332;-45
2022/04/11 10:01:53;;;;;;;;;;;;;;;;;;4846988;28;19920;-45
2022/04/11 10:04:18;;;;;;;;;;;;;;;;;;4820543;28;20705;-46
2022/04/11 10:06:43;;;;;;;;;;;;;;;;;;4822779;27;22479;-45
2022/04/11 10:09:08;;;;;;;;;;;;;;;;;;4775335;28;20475;-45
2022/04/11 10:11:33;;;;;;;;;;;;;;;;;;4633350;28;21482;-46
2022/04/11 10:13:58;;;;;;;;;;;;;;;;;;4580659;27;20008;-46
2022/04/11 10:16:23;;;;;;;;;;;;;;;;;;4671982;28;21301;-46
2022/04/11 10:18:48;;;;;;;;;;;;;;;;;;4787101;28;19924;-47
2022/04/11 10:21:14;;;;;;;;;;;;;;;;;;4811592;28;19923;-47
2022/04/11 10:23:39;;;;;;;;;;;;;;;;;;4816941;27;23945;-45
2022/04/11 10:26:04;;;;;;;;;;;;;;;;;;4799404;27;22537;-44
2022/04/11 10:28:29;;;;;;;;;;;;;;;;;;4814824;28;26901;-45
2022/04/11 10:30:54;;;;;;;;;;;;;;;;;;4809117;28;25261;-45
2022/04/11 10:33:19;;;;;;;;;;;;;;;;;;4799725;28;20044;-45
2022/04/11 10:35:44;;;;;;;;;;;;;;;;;;4779390;27;28597;-45
2022/04/11 10:38:09;;;;;;;;;;;;;;;;;;4761310;27;24250;-45
2022/04/11 10:40:35;;;;;;;;;;;;;;;;;;4762292;28;20087;-44
2022/04/11 10:43:00;;;;;;;;;;;;;;;;;;4783037;28;20001;-46
2022/04/11 10:45:25;;;;;;;;;;;;;;;;;;4755937;27;20009;-44
2022/04/11 10:47:51;;;;;;;;;;;;;;;;;;4794411;27;19920;-45
2022/04/11 10:50:16;;;;;;;;;;;;;;;;;;4837826;28;19977;-45
2022/04/11 10:52:41;;;;;;;;;;;;;;;;;;4832485;27;20066;-50
2022/04/11 10:55:06;;;;;;;;;;;;;;;;;;4831130;27;19926;-46
2022/04/11 10:57:31;;;;;;;;;;;;;;;;;;4813245;28;19931;-45
2022/04/11 10:59:56;;;;;;;;;;;;;;;;;;4781930;28;22455;-47
2022/04/11 11:02:22;;;;;;;;;;;;;;;;;;4750289;28;20298;-44
2022/04/11 11:04:48;;;;;;;;;;;;;;;;;;4796773;28;19927;-47
2022/04/11 11:07:13;;;;;;;;;;;;;;;;;;4822246;28;19920;-47
2022/04/11 11:09:39;;;;;;;;;;;;;;;;;;4855946;28;19920;-47
2022/04/11 11:12:04;;;;;;;;;;;;;;;;;;4843494;28;21754;-46
2022/04/11 11:14:29;;;;;;;;;;;;;;;;;;4876964;27;22490;-46
2022/04/11 11:16:54;;;;;;;;;;;;;;;;;;4784529;28;20518;-46
2022/04/11 11:19:20;;;;;;;;;;;;;;;;;;4844701;27;20668;-48
2022/04/11 11:21:48;;;;;;;;;;;;;;;;;;4812150;28;22061;-46
2022/04/11 11:24:14;;;;;;;;;;;;;;;;;;4810310;28;20553;-46
2022/04/11 11:26:40;;;;;;;;;;;;;;;;;;4775468;28;23530;-47
2022/04/11 11:29:05;;;;;;;;;;;;;;;;;;4733290;28;19920;-47
2022/04/11 11:31:30;;;;;;;;;;;;;;;;;;4736499;28;19979;-46
2022/04/11 11:33:55;;;;;;;;;;;;;;;;;;4686123;28;21081;-45
2022/04/11 11:36:20;;;;;;;;;;;;;;;;;;4753720;28;20511;-47
2022/04/11 11:38:45;;;;;;;;;;;;;;;;;;4836413;27;24356;-44
2022/04/11 11:41:10;;;;;;;;;;;;;;;;;;4831744;28;24005;-46
2022/04/11 11:43:36;;;;;;;;;;;;;;;;;;4848394;28;20501;-46
2022/04/11 11:46:02;;;;;;;;;;;;;;;;;;4842369;28;19931;-45
2022/04/11 11:48:30;;;;;;;;;;;;;;;;;;4825132;28;19930;-45
2022/04/11 11:50:55;;;;;;;;;;;;;;;;;;4862494;28;24532;-44
2022/04/11 11:53:21;;;;;;;;;;;;;;;;;;4849326;28;20020;-45
2022/04/11 11:55:46;;;;;;;;;;;;;;;;;;4862227;28;23106;-46
2022/04/11 11:58:11;;;;;;;;;;;;;;;;;;4840200;28;22049;-44
2022/04/11 12:00:38;;;;;;;;;;;;;;;;;;4858050;28;22114;-46
2022/04/11 12:05:47;;;;;;;;;;;;;;;;;;4871603;28;20004;-46
2022/04/11 12:08:17;;;;;;;;;;;;;;;;;;4869185;28;20544;-45
2022/04/11 12:10:42;;;;;;;;;;;;;;;;;;4849942;28;19920;-45
2022/04/11 12:13:07;;;;;;;;;;;;;;;;;;4866977;22;22580;-47
2022/04/11 12:15:32;;;;;;;;;;;;;;;;;;4828516;28;24471;-45
2022/04/11 12:17:57;;;;;;;;;;;;;;;;;;4818738;28;20008;-46
2022/04/11 12:20:22;;;;;;;;;;;;;;;;;;4798962;28;20049;-44
2022/04/11 12:22:47;;;;;;;;;;;;;;;;;;4733292;28;19966;-47
2022/04/11 12:25:13;;;;;;;;;;;;;;;;;;4701644;28;21156;-46
2022/04/11 12:27:38;;;;;;;;;;;;;;;;;;4772997;28;19985;-46
2022/04/11 12:30:03;;;;;;;;;;;;;;;;;;4846290;28;19928;-46
2022/04/11 12:32:30;;;;;;;;;;;;;;;;;;4872025;28;20693;-47
2022/04/11 12:34:57;;;;;;;;;;;;;;;;;;4882604;28;22199;-47
2022/04/11 12:37:24;;;;;;;;;;;;;;;;;;4890427;28;19920;-45
2022/04/11 12:39:49;;;;;;;;;;;;;;;;;;4918276;28;20025;-46
2022/04/11 12:42:14;;;;;;;;;;;;;;;;;;4902154;28;19965;-45
2022/04/11 12:44:39;;;;;;;;;;;;;;;;;;4876348;28;23557;-45
2022/04/11 12:47:04;;;;;;;;;;;;;;;;;;4906251;28;19959;-45
2022/04/11 12:49:29;;;;;;;;;;;;;;;;;;4917372;28;21493;-45
2022/04/11 12:51:54;;;;;;;;;;;;;;;;;;4908171;28;20894;-45
2022/04/11 12:54:20;;;;;;;;;;;;;;;;;;4866202;28;20052;-46
2022/04/11 12:56:45;;;;;;;;;;;;;;;;;;4887625;28;21518;-45
2022/04/11 12:59:10;;;;;;;;;;;;;;;;;;4873648;28;20016;-45
2022/04/11 13:01:35;;;;;;;;;;;;;;;;;;4873824;28;22928;-45
2022/04/11 13:04:00;;;;;;;;;;;;;;;;;;4873606;28;19920;-43
2022/04/11 13:06:25;;;;;;;;;;;;;;;;;;4873903;28;19924;-44
2022/04/11 13:08:50;;;;;;;;;;;;;;;;;;4827866;28;20001;-44
2022/04/11 13:11:15;;;;;;;;;;;;;;;;;;4819414;28;20112;-44
2022/04/11 13:13:43;;;;;;;;;;;;;;;;;;4795479;28;22518;-47
2022/04/11 13:18:53;;;;;;;;;;;;;;;;;;4816038;28;20037;-46
2022/04/11 13:21:18;;;;;;;;;;;;;;;;;;4881237;28;20367;-45
2022/04/11 13:23:43;;;;;;;;;;;;;;;;;;4936125;28;20108;-46
2022/04/11 13:26:08;;;;;;;;;;;;;;;;;;4938052;28;20016;-45
2022/04/11 13:28:33;;;;;;;;;;;;;;;;;;4946846;28;19998;-46
2022/04/11 13:30:59;;;;;;;;;;;;;;;;;;4968002;28;20073;-45
2022/04/11 13:33:24;;;;;;;;;;;;;;;;;;4985358;28;19920;-46
2022/04/11 13:35:50;;;;;;;;;;;;;;;;;;4973442;28;19920;-46
2022/04/11 13:38:15;;;;;;;;;;;;;;;;;;4973463;28;19924;-47
2022/04/11 13:40:40;;;;;;;;;;;;;;;;;;4994652;28;19927;-47
2022/04/11 13:43:05;;;;;;;;;;;;;;;;;;4984572;28;19920;-46
2022/04/11 13:45:31;;;;;;;;;;;;;;;;;;4975374;28;19920;-46
2022/04/11 13:47:56;;;;;;;;;;;;;;;;;;4966346;28;20006;-46
2022/04/11 13:50:21;;;;;;;;;;;;;;;;;;4995184;28;19942;-45
2022/04/11 13:52:49;;;;;;;;;;;;;;;;;;4994941;28;20638;-45
2022/04/11 13:55:14;;;;;;;;;;;;;;;;;;4998768;28;20029;-43
2022/04/11 13:57:39;;;;;;;;;;;;;;;;;;4974586;28;20623;-47
2022/04/11 14:00:04;;;;;;;;;;;;;;;;;;4969751;28;19920;-45
2022/04/11 14:02:30;;;;;;;;;;;;;;;;;;4943957;28;19920;-46
2022/04/11 14:04:55;;;;;;;;;;;;;;;;;;4932145;28;20338;-45
2022/04/11 14:07:20;;;;;;;;;;;;;;;;;;4966849;28;20626;-46
2022/04/11 14:09:46;;;;;;;;;;;;;;;;;;5014449;28;19924;-45
2022/04/11 14:12:11;;;;;;;;;;;;;;;;;;5026141;28;20644;-46
2022/04/11 14:14:36;;;;;;;;;;;;;;;;;;5027431;28;20067;-45
2022/04/11 14:17:01;;;;;;;;;;;;;;;;;;5044121;28;19923;-44
2022/04/11 14:19:26;;;;;;;;;;;;;;;;;;5046304;28;20066;-46
2022/04/11 14:21:53;;;;;;;;;;;;;;;;;;5052544;28;19916;-46
2022/04/11 14:24:18;;;;;;;;;;;;;;;;;;5049428;28;19951;-45
2022/04/11 14:26:45;;;;;;;;;;;;;;;;;;5052340;28;23446;-45
2022/04/11 14:29:10;;;;;;;;;;;;;;;;;;5055256;28;20387;-46
2022/04/11 14:31:35;;;;;;;;;;;;;;;;;;5040067;28;19923;-45
2022/04/11 14:34:00;;;;;;;;;;;;;;;;;;5057969;28;19931;-45
2022/04/11 14:36:25;;;;;;;;;;;;;;;;;;5053603;28;19970;-47
2022/04/11 14:38:51;;;;;;;;;;;;;;;;;;5052694;28;19924;-45
2022/04/11 14:41:16;;;;;;;;;;;;;;;;;;5046414;28;19920;-45
2022/04/11 14:43:41;;;;;;;;;;;;;;;;;;5061509;28;19920;-46
2022/04/11 14:46:06;;;;;;;;;;;;;;;;;;5058820;28;20600;-47
2022/04/11 14:48:31;;;;;;;;;;;;;;;;;;5045108;28;19917;-45
2022/04/11 14:50:56;;;;;;;;;;;;;;;;;;5045776;28;19977;-47
2022/04/11 14:53:21;;;;;;;;;;;;;;;;;;5031734;28;19926;-46
2022/04/11 14:55:46;;;;;;;;;;;;;;;;;;5050346;28;19920;-48
2022/04/11 14:58:12;;;;;;;;;;;;;;;;;;5066033;28;19928;-47
2022/04/11 15:00:37;;;;;;;;;;;;;;;;;;5071177;28;19916;-45
2022/04/11 15:03:02;;;;;;;;;;;;;;;;;;5076317;28;19912;-45
2022/04/11 15:05:27;;;;;;;;;;;;;;;;;;5081197;28;19912;-46
2022/04/11 15:07:52;;;;;;;;;;;;;;;;;;5076769;28;20358;-45
2022/04/11 15:10:17;;;;;;;;;;;;;;;;;;5088315;28;20263;-46
2022/04/11 15:12:43;;;;;;;;;;;;;;;;;;5090489;28;19935;-45
2022/04/11 15:15:08;;;;;;;;;;;;;;;;;;5085069;28;20339;-47
2022/04/11 15:17:33;;;;;;;;;;;;;;;;;;5080387;28;19976;-45
2022/04/11 15:19:58;;;;;;;;;;;;;;;;;;5080802;28;19918;-45
2022/04/11 15:22:27;;;;;;;;;;;;;;;;;;5078903;28;19919;-48
2022/04/11 15:24:52;;;;;;;;;;;;;;;;;;5086477;28;19920;-46
2022/04/11 15:27:17;;;;;;;;;;;;;;;;;;5088604;28;19908;-46
2022/04/11 15:29:42;;;;;;;;;;;;;;;;;;5082963;28;19946;-46
2022/04/11 15:32:09;;;;;;;;;;;;;;;;;;5084114;28;19912;-46
2022/04/11 15:34:35;;;;;;;;;;;;;;;;;;5086369;28;20385;-46
2022/04/11 15:37:00;;;;;;;;;;;;;;;;;;5081824;28;19966;-47
2022/04/11 15:39:25;;;;;;;;;;;;;;;;;;5081615;28;19985;-44
2022/04/11 15:41:50;;;;;;;;;;;;;;;;;;5083628;28;20003;-45
2022/04/11 15:44:15;;;;;;;;;;;;;;;;;;5081467;28;20350;-46
2022/04/11 15:46:40;;;;;;;;;;;;;;;;;;5082588;28;19920;-45
2022/04/11 15:49:06;;;;;;;;;;;;;;;;;;5081946;28;19912;-46
2022/04/11 15:51:35;;;;;;;;;;;;;;;;;;5082353;28;20008;-48
2022/04/11 15:54:01;;;;;;;;;;;;;;;;;;5080920;28;19912;-47
2022/04/11 15:56:26;;;;;;;;;;;;;;;;;;5081228;28;19966;-44
2022/04/11 15:58:51;;;;;;;;;;;;;;;;;;5082413;28;19960;-46
2022/04/11 16:01:16;;;;;;;;;;;;;;;;;;5088785;28;20041;-43
2022/04/11 16:03:42;;;;;;;;;;;;;;;;;;5083934;28;20430;-44
2022/04/11 16:06:07;;;;;;;;;;;;;;;;;;5081395;28;19995;-44
2022/04/11 16:08:32;;;;;;;;;;;;;;;;;;5084064;28;19916;-44
2022/04/11 16:10:57;;;;;;;;;;;;;;;;;;5080409;28;19962;-45
2022/04/11 16:13:22;;;;;;;;;;;;;;;;;;5083903;28;19974;-43
2022/04/11 16:15:47;;;;;;;;;;;;;;;;;;5088366;28;19920;-44
2022/04/11 16:18:13;;;;;;;;;;;;;;;;;;5087585;28;19916;-44
2022/04/11 16:20:38;;;;;;;;;;;;;;;;;;5090145;28;19908;-45
2022/04/11 16:23:03;;;;;;;;;;;;;;;;;;5088492;28;19920;-44
2022/04/11 16:25:28;;;;;;;;;;;;;;;;;;5090731;28;19915;-44
2022/04/11 16:27:53;;;;;;;;;;;;;;;;;;5091599;28;20547;-45
2022/04/11 16:30:18;;;;;;;;;;;;;;;;;;5092573;28;20302;-43
2022/04/11 16:32:44;;;;;;;;;;;;;;;;;;5083597;28;19915;-43
2022/04/11 16:35:09;;;;;;;;;;;;;;;;;;5082723;28;19908;-43
2022/04/11 16:37:34;;;;;;;;;;;;;;;;;;5089458;28;19920;-44